createdAt,value
2017-10-08T00:00:49.539Z,88.33
2017-10-08T00:03:25.087Z,88.54
2017-10-08T00:06:00.529Z,88.21
2017-10-08T00:08:35.953Z,88.51
2017-10-08T00:11:10.882Z,88.72
2017-10-08T00:13:46.138Z,88.13
2017-10-08T00:16:27.817Z,88.41
2017-10-08T00:19:02.319Z,88.32
2017-10-08T00:21:41.267Z,88.47
2017-10-08T00:24:16.613Z,88.38
2017-10-08T00:26:51.531Z,88.14
2017-10-08T00:29:27.922Z,87.51
2017-10-08T00:32:03.663Z,87.57
2017-10-08T00:34:38.726Z,87.73
2017-10-08T00:37:17.911Z,88.10
2017-10-08T00:39:52.547Z,87.99
2017-10-08T00:42:27.241Z,87.62
2017-10-08T00:45:02.597Z,88.33
2017-10-08T00:47:37.564Z,87.90
2017-10-08T00:50:12.723Z,87.46
2017-10-08T00:52:48.334Z,88.12
2017-10-08T00:55:23.220Z,88.52
2017-10-08T00:57:59.438Z,88.00
2017-10-08T01:00:34.747Z,88.25
2017-10-08T01:03:10.141Z,87.94
2017-10-08T01:05:45.045Z,88.26
2017-10-08T01:08:24.182Z,88.33
2017-10-08T01:10:59.130Z,87.95
2017-10-08T01:13:34.760Z,88.11
2017-10-08T01:16:09.513Z,88.33
2017-10-08T01:18:45.552Z,87.76
2017-10-08T01:21:21.002Z,87.10
2017-10-08T01:23:55.890Z,87.47
2017-10-08T01:26:30.400Z,87.63
2017-10-08T01:29:05.277Z,88.17
2017-10-08T01:31:39.820Z,88.94
2017-10-08T01:34:16.262Z,88.41
2017-10-08T01:36:51.322Z,87.67
2017-10-08T01:39:27.778Z,87.04
2017-10-08T01:42:02.547Z,87.46
2017-10-08T01:44:37.948Z,86.62
2017-10-08T01:50:11.885Z,86.77
2017-10-08T01:52:47.332Z,86.87
2017-10-08T01:55:23.446Z,87.45
2017-10-08T01:57:58.043Z,87.06
2017-10-08T02:00:34.224Z,86.88
2017-10-08T02:03:09.314Z,87.40
2017-10-08T02:05:45.065Z,86.42
2017-10-08T02:08:19.865Z,86.06
2017-10-08T02:10:54.913Z,85.70
2017-10-08T02:13:29.732Z,85.93
2017-10-08T02:16:05.112Z,86.65
2017-10-08T02:18:40.028Z,86.27
2017-10-08T02:21:16.696Z,85.99
2017-10-08T02:23:51.665Z,86.71
2017-10-08T02:26:26.426Z,86.90
2017-10-08T02:29:01.181Z,87.42
2017-10-08T02:31:39.090Z,87.78
2017-10-08T02:34:14.435Z,86.96
2017-10-08T02:36:50.794Z,86.63
2017-10-08T02:39:25.538Z,86.41
2017-10-08T02:42:06.514Z,86.24
2017-10-08T02:44:40.935Z,85.90
2017-10-08T02:47:16.434Z,85.77
2017-10-08T02:49:51.080Z,85.62
2017-10-08T02:52:30.032Z,86.06
2017-10-08T02:55:05.433Z,85.40
2017-10-08T02:57:41.112Z,85.48
2017-10-08T03:00:16.933Z,85.36
2017-10-08T03:02:52.165Z,85.32
2017-10-08T03:05:27.568Z,84.89
2017-10-08T03:08:03.913Z,84.61
2017-10-08T03:10:39.397Z,84.84
2017-10-08T03:13:14.034Z,85.42
2017-10-08T03:15:48.832Z,85.12
2017-10-08T03:18:26.216Z,85.13
2017-10-08T03:21:01.582Z,84.90
2017-10-08T03:23:36.421Z,84.54
2017-10-08T03:26:11.106Z,84.60
2017-10-08T03:28:46.496Z,83.92
2017-10-08T03:31:21.913Z,84.15
2017-10-08T03:33:58.304Z,84.23
2017-10-08T03:36:33.224Z,83.56
2017-10-08T03:39:10.365Z,83.65
2017-10-08T03:41:45.987Z,83.64
2017-10-08T03:44:21.022Z,83.28
2017-10-08T03:46:56.409Z,83.69
2017-10-08T03:49:24.264Z,82.86
2017-10-08T03:52:00.405Z,83.09
2017-10-08T03:54:35.825Z,82.87
2017-10-08T03:57:10.430Z,82.51
2017-10-08T03:59:46.571Z,82.15
2017-10-08T04:02:23.251Z,82.47
2017-10-08T04:05:00.421Z,82.30
2017-10-08T04:07:35.489Z,81.70
2017-10-08T04:10:14.696Z,82.21
2017-10-08T04:12:49.614Z,82.51
2017-10-08T04:15:24.283Z,82.16
2017-10-08T04:17:59.699Z,82.36
2017-10-08T04:20:35.357Z,82.32
2017-10-08T04:23:10.423Z,81.83
2017-10-08T04:25:45.055Z,82.05
2017-10-08T04:28:20.372Z,81.93
2017-10-08T04:30:55.380Z,81.56
2017-10-08T04:33:30.097Z,81.58
2017-10-08T04:36:06.498Z,81.63
2017-10-08T04:38:41.229Z,81.17
2017-10-08T04:41:18.589Z,81.59
2017-10-08T04:43:53.534Z,81.23
2017-10-08T04:46:28.191Z,80.75
2017-10-08T04:49:02.817Z,80.83
2017-10-08T04:51:38.632Z,80.73
2017-10-08T04:54:13.447Z,80.87
2017-10-08T04:56:58.854Z,80.52
2017-10-08T04:59:39.452Z,80.67
2017-10-08T05:02:14.838Z,80.70
2017-10-08T05:04:52.101Z,81.76
2017-10-08T05:07:31.277Z,81.89
2017-10-08T05:10:06.373Z,81.63
2017-10-08T05:12:42.475Z,81.62
2017-10-08T05:15:19.192Z,81.10
2017-10-08T05:17:56.515Z,80.26
2017-10-08T05:23:08.021Z,80.68
2017-10-08T05:25:43.026Z,80.75
2017-10-08T05:28:18.070Z,81.61
2017-10-08T05:30:53.280Z,80.55
2017-10-08T05:33:30.036Z,80.38
2017-10-08T05:36:04.762Z,80.71
2017-10-08T05:38:39.659Z,81.23
2017-10-08T05:41:15.020Z,81.04
2017-10-08T05:43:55.474Z,80.70
2017-10-08T05:46:30.964Z,80.80
2017-10-08T05:48:57.715Z,81.43
2017-10-08T05:54:08.648Z,80.81
2017-10-08T05:56:43.308Z,79.48
2017-10-08T05:59:10.052Z,79.40
2017-10-08T06:01:44.719Z,79.51
2017-10-08T06:04:22.954Z,79.65
2017-10-08T06:06:57.756Z,79.12
2017-10-08T06:09:33.342Z,79.93
2017-10-08T06:12:07.896Z,79.11
2017-10-08T06:14:43.188Z,79.82
2017-10-08T06:17:19.813Z,79.68
2017-10-08T06:19:55.313Z,80.13
2017-10-08T06:22:30.071Z,79.46
2017-10-08T06:25:06.505Z,79.36
2017-10-08T06:27:41.261Z,77.88
2017-10-08T06:30:16.236Z,78.42
2017-10-08T06:32:50.800Z,79.11
2017-10-08T06:35:28.270Z,78.26
2017-10-08T06:38:03.061Z,78.37
2017-10-08T06:40:39.294Z,79.21
2017-10-08T06:43:13.954Z,78.03
2017-10-08T06:45:49.660Z,78.92
2017-10-08T06:48:24.475Z,79.54
2017-10-08T06:51:03.943Z,78.68
2017-10-08T06:53:38.944Z,79.93
2017-10-08T06:56:05.689Z,79.07
2017-10-08T06:58:41.154Z,79.30
2017-10-08T07:01:18.216Z,79.59
2017-10-08T07:03:53.442Z,79.98
2017-10-08T07:06:29.119Z,79.80
2017-10-08T07:09:04.585Z,79.77
2017-10-08T07:11:40.434Z,79.89
2017-10-08T07:14:07.173Z,79.37
2017-10-08T07:16:41.224Z,79.86
2017-10-08T07:19:14.710Z,80.08
2017-10-08T07:22:10.670Z,80.37
2017-10-08T07:27:30.967Z,79.58
2017-10-08T07:30:03.064Z,79.63
2017-10-08T07:32:33.808Z,79.33
2017-10-08T07:35:00.924Z,79.80
2017-10-08T07:37:35.958Z,79.20
2017-10-08T07:40:10.666Z,79.07
2017-10-08T07:42:47.164Z,78.65
2017-10-08T07:45:13.904Z,78.48
2017-10-08T07:47:41.165Z,77.91
2017-10-08T07:50:13.085Z,78.53
2017-10-08T07:52:39.817Z,78.50
2017-10-08T07:55:17.583Z,77.59
2017-10-08T07:58:03.652Z,76.86
2017-10-08T08:00:38.880Z,76.13
2017-10-08T08:03:14.182Z,76.62
2017-10-08T08:06:05.132Z,76.98
2017-10-08T08:08:44.942Z,75.45
2017-10-08T08:11:19.857Z,76.27
2017-10-08T08:13:54.694Z,76.30
2017-10-08T08:16:30.191Z,74.11
2017-10-08T08:19:10.469Z,74.47
2017-10-08T08:21:51.606Z,74.17
2017-10-08T08:24:26.638Z,75.17
2017-10-08T08:27:04.168Z,74.47
2017-10-08T08:29:31.303Z,71.69
2017-10-08T08:31:59.679Z,72.83
2017-10-08T08:37:27.010Z,71.31
2017-10-08T08:39:57.490Z,70.86
2017-10-08T08:53:31.087Z,66.08
2017-10-08T08:55:59.144Z,66.69
2017-10-08T08:58:39.199Z,66.92
2017-10-08T09:01:06.252Z,67.20
2017-10-08T09:03:33.402Z,66.37
2017-10-08T09:06:02.969Z,65.93
2017-10-08T09:08:31.441Z,64.58
2017-10-08T09:10:58.498Z,65.06
2017-10-08T09:13:26.708Z,65.59
2017-10-08T09:15:53.631Z,65.93
2017-10-08T09:18:20.806Z,65.32
2017-10-08T09:20:53.541Z,65.10
2017-10-08T09:23:20.432Z,64.36
2017-10-08T09:25:47.514Z,66.08
2017-10-08T09:28:14.884Z,65.03
2017-10-08T09:30:42.535Z,66.68
2017-10-08T09:33:13.349Z,66.71
2017-10-08T09:35:41.300Z,66.43
2017-10-08T09:38:10.651Z,65.30
2017-10-08T09:40:39.646Z,65.89
2017-10-08T09:43:13.188Z,66.06
2017-10-08T09:45:40.601Z,66.07
2017-10-08T09:48:11.134Z,66.50
2017-10-08T09:50:38.981Z,66.06
2017-10-08T09:53:06.854Z,63.51
2017-10-08T09:55:33.770Z,63.89
2017-10-08T09:58:00.640Z,62.39
2017-10-08T10:00:27.515Z,63.19
2017-10-08T10:02:54.328Z,61.22
2017-10-08T10:05:23.256Z,60.58
2017-10-08T10:07:50.539Z,60.47
2017-10-08T10:10:17.425Z,61.43
2017-10-08T10:12:44.249Z,60.09
2017-10-08T10:15:11.061Z,60.73
2017-10-08T10:17:38.269Z,60.06
2017-10-08T10:20:06.819Z,61.76
2017-10-08T10:22:33.605Z,60.60
2017-10-08T10:25:00.424Z,59.69
2017-10-08T10:27:52.010Z,60.59
2017-10-08T10:30:18.827Z,61.24
2017-10-08T10:32:45.758Z,60.76
2017-10-08T10:35:14.386Z,60.42
2017-10-08T10:37:41.175Z,59.93
2017-10-08T10:40:08.148Z,58.94
2017-10-08T10:42:35.047Z,58.89
2017-10-08T10:45:01.907Z,59.97
2017-10-08T10:47:28.853Z,58.42
2017-10-08T10:50:00.803Z,58.73
2017-10-08T10:52:28.060Z,59.63
2017-10-08T10:54:54.989Z,60.22
2017-10-08T10:57:22.217Z,60.44
2017-10-08T10:59:49.291Z,61.21
2017-10-08T11:02:16.605Z,60.17
2017-10-08T11:04:43.589Z,59.68
2017-10-08T11:07:10.461Z,59.61
2017-10-08T11:09:37.285Z,59.14
2017-10-08T11:12:05.494Z,60.06
2017-10-08T11:14:32.809Z,58.69
2017-10-08T11:16:59.712Z,58.03
2017-10-08T11:19:29.154Z,57.56
2017-10-08T11:21:56.631Z,56.62
2017-10-08T11:24:23.546Z,57.14
2017-10-08T11:26:51.651Z,56.68
2017-10-08T11:29:18.855Z,56.92
2017-10-08T11:31:45.759Z,56.79
2017-10-08T11:34:12.769Z,58.51
2017-10-08T11:36:39.743Z,58.08
2017-10-08T11:39:06.698Z,58.75
2017-10-08T11:41:33.919Z,57.73
2017-10-08T11:44:00.832Z,57.43
2017-10-08T11:46:27.999Z,57.37
2017-10-08T11:48:55.478Z,57.76
2017-10-08T11:51:23.644Z,57.97
2017-10-08T11:53:52.428Z,58.87
2017-10-08T11:56:28.232Z,56.80
2017-10-08T11:58:55.216Z,57.42
2017-10-08T12:01:22.104Z,57.33
2017-10-08T12:03:52.516Z,56.99
2017-10-08T12:06:19.473Z,57.11
2017-10-08T12:08:46.502Z,58.91
2017-10-08T12:11:13.443Z,56.13
2017-10-08T12:13:40.776Z,56.52
2017-10-08T12:16:07.796Z,56.01
2017-10-08T12:18:37.281Z,57.20
2017-10-08T12:21:04.067Z,57.77
2017-10-08T12:23:30.880Z,58.83
2017-10-08T12:25:58.155Z,58.29
2017-10-08T12:28:25.045Z,58.91
2017-10-08T12:30:51.831Z,58.42
2017-10-08T12:33:19.127Z,57.85
2017-10-08T12:35:45.971Z,58.83
2017-10-08T12:38:12.888Z,58.85
2017-10-08T12:40:39.831Z,59.93
2017-10-08T12:43:06.670Z,58.68
2017-10-08T12:45:33.525Z,57.77
2017-10-08T12:48:00.414Z,57.83
2017-10-08T12:50:27.215Z,58.36
2017-10-08T12:52:54.109Z,58.17
2017-10-08T12:55:20.929Z,57.74
2017-10-08T12:57:47.704Z,58.75
2017-10-08T13:00:15.366Z,59.47
2017-10-08T13:02:44.866Z,59.66
2017-10-08T13:05:11.971Z,58.66
2017-10-08T13:07:38.824Z,57.91
2017-10-08T13:10:05.626Z,58.50
2017-10-08T13:12:32.459Z,58.71
2017-10-08T13:14:59.267Z,58.77
2017-10-08T13:17:25.990Z,58.64
2017-10-08T13:19:52.764Z,58.97
2017-10-08T13:22:22.248Z,58.52
2017-10-08T13:24:49.337Z,59.53
2017-10-08T13:27:31.530Z,58.46
2017-10-08T13:30:01.537Z,59.27
2017-10-08T13:32:28.310Z,59.65
2017-10-08T13:34:55.082Z,60.20
2017-10-08T13:37:22.900Z,61.35
2017-10-08T13:39:49.878Z,61.73
2017-10-08T13:42:18.635Z,62.08
2017-10-08T13:44:47.687Z,62.52
2017-10-08T13:47:14.678Z,61.93
2017-10-08T13:49:50.679Z,63.01
2017-10-08T13:52:19.052Z,62.17
2017-10-08T13:54:46.000Z,63.08
2017-10-08T13:57:13.006Z,63.43
2017-10-08T13:59:40.857Z,62.94
2017-10-08T14:02:07.730Z,63.57
2017-10-08T14:04:36.269Z,63.44
2017-10-08T14:07:03.341Z,64.17
2017-10-08T14:09:30.207Z,64.36
2017-10-08T14:11:59.529Z,64.41
2017-10-08T14:14:26.438Z,64.70
2017-10-08T14:16:53.411Z,65.18
2017-10-08T14:19:20.499Z,65.33
2017-10-08T14:21:47.399Z,65.45
2017-10-08T14:24:14.551Z,65.14
2017-10-08T14:26:42.646Z,65.74
2017-10-08T14:29:09.724Z,64.74
2017-10-08T14:31:36.984Z,64.39
2017-10-08T14:34:08.183Z,64.40
2017-10-08T14:36:35.332Z,64.93
2017-10-08T14:39:02.496Z,64.27
2017-10-08T14:41:29.641Z,64.60
2017-10-08T14:43:56.832Z,65.60
2017-10-08T14:46:24.232Z,64.80
2017-10-08T14:48:51.416Z,64.73
2017-10-08T14:51:19.501Z,65.57
2017-10-08T14:53:46.733Z,66.04
2017-10-08T14:56:14.787Z,65.96
2017-10-08T14:58:41.694Z,66.25
2017-10-08T15:01:08.638Z,67.07
2017-10-08T15:03:36.573Z,67.55
2017-10-08T15:06:03.665Z,67.08
2017-10-08T15:08:30.700Z,67.51
2017-10-08T15:10:57.702Z,67.78
2017-10-08T15:13:24.751Z,68.26
2017-10-08T15:15:51.704Z,69.27
2017-10-08T15:18:19.307Z,69.55
2017-10-08T15:20:46.387Z,69.54
2017-10-08T15:26:12.328Z,70.49
2017-10-08T15:28:40.375Z,71.17
2017-10-08T15:31:17.544Z,70.67
2017-10-08T15:33:44.609Z,71.08
2017-10-08T15:36:25.594Z,70.66
2017-10-08T15:38:52.571Z,69.98
2017-10-08T15:41:21.475Z,70.15
2017-10-08T15:43:49.723Z,70.10
2017-10-08T15:46:17.503Z,70.51
2017-10-08T15:48:53.135Z,70.10
2017-10-08T15:51:21.806Z,70.26
2017-10-08T15:53:49.559Z,71.11
2017-10-08T15:56:33.184Z,70.70
2017-10-08T16:05:59.543Z,72.90
2017-10-08T16:08:30.743Z,72.12
2017-10-08T16:14:09.563Z,72.79
2017-10-08T16:16:38.621Z,72.98
2017-10-08T16:19:05.958Z,73.17
2017-10-08T16:21:49.441Z,73.34
2017-10-08T16:24:19.608Z,73.69
2017-10-08T16:26:46.514Z,74.16
2017-10-08T16:29:14.138Z,74.08
2017-10-08T16:31:40.887Z,74.31
2017-10-08T16:34:07.713Z,74.59
2017-10-08T16:36:34.634Z,74.42
2017-10-08T16:39:01.548Z,74.67
2017-10-08T16:41:28.381Z,74.83
2017-10-08T16:43:55.215Z,75.19
2017-10-08T16:46:22.197Z,75.09
2017-10-08T16:48:49.025Z,74.94
2017-10-08T16:51:17.667Z,74.83
2017-10-08T16:53:44.527Z,75.39
2017-10-08T16:56:11.334Z,74.94
2017-10-08T16:58:38.443Z,75.30
2017-10-08T17:01:05.266Z,75.29
2017-10-08T17:03:32.182Z,75.18
2017-10-08T17:05:59.228Z,75.49
2017-10-08T17:08:26.236Z,75.93
2017-10-08T17:10:54.039Z,75.91
2017-10-08T17:13:20.877Z,75.68
2017-10-08T17:18:43.020Z,75.00
2017-10-08T17:21:10.499Z,75.31
2017-10-08T17:23:37.377Z,75.24
2017-10-08T17:26:04.342Z,75.20
2017-10-08T17:28:31.214Z,75.31
2017-10-08T17:30:58.123Z,75.20
2017-10-08T17:33:25.043Z,75.15
2017-10-08T17:35:51.875Z,75.28
2017-10-08T17:38:18.664Z,75.30
2017-10-08T17:40:45.594Z,75.50
2017-10-08T17:43:12.423Z,75.65
2017-10-08T17:45:39.799Z,75.64
2017-10-08T17:48:07.860Z,75.73
2017-10-08T17:50:34.934Z,75.84
2017-10-08T17:53:01.746Z,76.04
2017-10-08T17:55:28.582Z,76.23
2017-10-08T17:57:56.463Z,76.15
2017-10-08T18:00:23.379Z,76.50
2017-10-08T18:02:52.267Z,76.81
2017-10-08T18:05:19.110Z,77.46
2017-10-08T18:07:46.014Z,77.83
2017-10-08T18:10:14.066Z,77.88
2017-10-08T18:12:40.931Z,77.88
2017-10-08T18:15:10.837Z,77.51
2017-10-08T18:17:37.901Z,77.28
2017-10-08T18:20:04.716Z,77.13
2017-10-08T18:22:31.627Z,76.49
2017-10-08T18:24:59.450Z,76.39
2017-10-08T18:27:26.580Z,76.21
2017-10-08T18:29:53.421Z,76.49
2017-10-08T18:32:20.424Z,76.67
2017-10-08T18:34:47.484Z,76.96
2017-10-08T18:37:14.309Z,77.10
2017-10-08T18:39:41.136Z,77.28
2017-10-08T18:42:09.033Z,76.99
2017-10-08T18:44:35.839Z,77.66
2017-10-08T18:47:03.495Z,77.99
2017-10-08T18:49:30.320Z,78.46
2017-10-08T18:51:57.165Z,78.97
2017-10-08T18:54:24.956Z,78.99
2017-10-08T18:56:51.725Z,78.34
2017-10-08T18:59:18.475Z,77.65
2017-10-08T19:01:45.335Z,77.04
2017-10-08T19:04:12.097Z,77.10
2017-10-08T19:06:38.916Z,76.84
2017-10-08T19:09:06.612Z,76.83
2017-10-08T19:11:33.417Z,76.83
2017-10-08T19:14:00.212Z,76.60
2017-10-08T19:16:27.138Z,76.63
2017-10-08T19:18:53.931Z,76.48
2017-10-08T19:21:20.868Z,76.43
2017-10-08T19:23:48.724Z,76.56
2017-10-08T19:26:15.632Z,76.48
2017-10-08T19:28:42.669Z,76.47
2017-10-08T19:31:10.533Z,76.63
2017-10-08T19:33:38.622Z,76.97
2017-10-08T19:36:05.586Z,77.18
2017-10-08T19:38:34.183Z,77.36
2017-10-08T19:41:01.098Z,77.47
2017-10-08T19:43:28.810Z,77.46
2017-10-08T19:45:56.395Z,77.53
2017-10-08T19:48:23.285Z,77.25
2017-10-08T19:50:50.158Z,77.28
2017-10-08T19:53:24.450Z,77.24
2017-10-08T19:55:51.328Z,77.05
2017-10-08T19:58:18.574Z,77.05
2017-10-08T20:00:45.374Z,77.33
2017-10-08T20:03:15.485Z,77.47
2017-10-08T20:05:44.415Z,77.52
2017-10-08T20:08:11.260Z,77.37
2017-10-08T20:10:47.420Z,77.16
2017-10-08T20:13:14.300Z,77.18
2017-10-08T20:15:41.018Z,77.23
2017-10-08T20:18:07.813Z,77.33
2017-10-08T20:20:34.644Z,77.34
2017-10-08T20:23:01.555Z,77.26
2017-10-08T20:25:28.330Z,77.24
2017-10-08T20:27:59.236Z,77.49
2017-10-08T20:30:26.940Z,77.39
2017-10-08T20:32:54.763Z,77.32
2017-10-08T20:35:21.626Z,77.77
2017-10-08T20:37:48.511Z,78.02
2017-10-08T20:40:16.303Z,77.95
2017-10-08T20:42:43.225Z,77.95
2017-10-08T20:45:10.034Z,78.07
2017-10-08T20:47:37.867Z,77.96
2017-10-08T20:50:06.743Z,78.10
2017-10-08T20:52:33.538Z,78.23
2017-10-08T20:55:02.063Z,78.23
2017-10-08T20:57:28.834Z,78.59
2017-10-08T20:59:55.631Z,79.27
2017-10-08T21:02:24.371Z,79.61
2017-10-08T21:04:51.517Z,80.10
2017-10-08T21:07:18.402Z,80.13
2017-10-08T21:09:46.242Z,79.99
2017-10-08T21:12:13.202Z,80.35
2017-10-08T21:14:40.036Z,80.05
2017-10-08T21:17:06.856Z,79.88
2017-10-08T21:19:33.721Z,79.20
2017-10-08T21:22:00.570Z,78.93
2017-10-08T21:24:29.195Z,78.93
2017-10-08T21:26:56.011Z,78.62
2017-10-08T21:29:22.965Z,78.74
2017-10-08T21:31:49.830Z,78.90
2017-10-08T21:34:16.755Z,79.09
2017-10-08T21:36:43.589Z,79.24
2017-10-08T21:39:10.434Z,79.93
2017-10-08T21:41:37.324Z,80.16
2017-10-08T21:44:04.143Z,80.37
2017-10-08T21:46:31.810Z,79.90
2017-10-08T21:48:58.609Z,79.97
2017-10-08T21:51:25.569Z,80.29
2017-10-08T21:53:52.590Z,80.06
2017-10-08T21:56:19.490Z,79.98
2017-10-08T21:58:46.763Z,79.49
2017-10-08T22:01:15.422Z,78.95
2017-10-08T22:03:43.259Z,79.02
2017-10-08T22:06:10.202Z,79.71
2017-10-08T22:08:37.072Z,79.90
2017-10-08T22:11:03.847Z,79.23
2017-10-08T22:13:30.621Z,78.62
2017-10-08T22:15:57.579Z,78.58
2017-10-08T22:18:24.387Z,78.20
2017-10-08T22:20:51.157Z,77.67
2017-10-08T22:23:18.826Z,77.86
2017-10-08T22:25:45.673Z,77.95
2017-10-08T22:28:12.392Z,77.50
2017-10-08T22:30:39.211Z,76.92
2017-10-08T22:33:06.094Z,77.00
2017-10-08T22:35:32.864Z,76.54
2017-10-08T22:38:00.585Z,75.94
2017-10-08T22:40:27.295Z,75.95
2017-10-08T22:42:54.012Z,75.69
2017-10-08T22:45:24.420Z,75.36
2017-10-08T22:47:51.170Z,74.92
2017-10-08T22:50:17.949Z,74.62
2017-10-08T22:52:45.532Z,74.31
2017-10-08T22:55:12.302Z,74.07
2017-10-08T22:57:39.059Z,73.73
2017-10-08T23:00:06.346Z,73.67
2017-10-08T23:02:33.103Z,74.07
2017-10-08T23:04:59.924Z,74.58
2017-10-08T23:07:26.913Z,75.00
2017-10-08T23:09:53.643Z,74.94
2017-10-08T23:12:20.403Z,74.30
2017-10-08T23:14:47.498Z,74.30
2017-10-08T23:17:14.408Z,73.89
2017-10-08T23:19:41.184Z,73.79
2017-10-08T23:22:10.589Z,74.50
2017-10-08T23:24:37.319Z,74.64
2017-10-08T23:27:04.034Z,74.36
2017-10-08T23:29:31.282Z,73.57
2017-10-08T23:31:58.037Z,73.53
2017-10-08T23:34:24.802Z,72.84
2017-10-08T23:36:55.266Z,73.27
2017-10-08T23:39:22.003Z,73.54
2017-10-08T23:41:49.618Z,73.93
2017-10-08T23:44:17.483Z,73.79
2017-10-08T23:46:44.252Z,74.28
2017-10-08T23:49:11.063Z,74.36
2017-10-08T23:51:38.107Z,74.31
2017-10-08T23:54:04.916Z,74.18
2017-10-08T23:56:31.696Z,73.68
2017-10-08T23:59:02.119Z,73.48
